createdAt,value
2023-01-21T00:01:55.403Z,0.92
2023-01-21T00:04:29.011Z,0.91
2023-01-21T00:07:01.431Z,0.89
2023-01-21T00:09:34.168Z,0.86
2023-01-21T00:12:06.299Z,0.88
2023-01-21T00:14:38.322Z,0.85
2023-01-21T00:17:10.328Z,0.82
2023-01-21T00:19:42.497Z,0.82
2023-01-21T00:22:18.897Z,0.81
2023-01-21T00:24:50.935Z,0.78
2023-01-21T00:27:23.340Z,0.78
2023-01-21T00:29:55.301Z,0.82
2023-01-21T00:32:27.431Z,0.87
2023-01-21T00:34:59.492Z,0.97
2023-01-21T00:37:31.534Z,1.02
2023-01-21T00:40:05.773Z,1.12
2023-01-21T00:42:37.810Z,1.23
2023-01-21T00:45:10.375Z,1.32
2023-01-21T00:47:42.624Z,1.37
2023-01-21T00:50:14.916Z,1.44
2023-01-21T00:52:47.016Z,1.47
2023-01-21T00:55:19.027Z,1.54
2023-01-21T00:57:53.215Z,1.63
2023-01-21T01:00:25.369Z,1.70
2023-01-21T01:03:59.778Z,1.77
2023-01-21T01:06:32.454Z,1.81
2023-01-21T01:09:30.145Z,1.86
2023-01-21T01:12:06.553Z,1.86
2023-01-21T01:17:24.314Z,1.97
2023-01-21T01:19:56.321Z,2.01
2023-01-21T01:22:28.617Z,2.02
2023-01-21T01:25:00.571Z,2.08
2023-01-21T01:27:32.803Z,2.12
2023-01-21T01:30:05.775Z,2.19
2023-01-21T01:32:37.813Z,2.20
2023-01-21T01:35:13.014Z,2.25
2023-01-21T01:37:44.955Z,2.32
2023-01-21T01:40:17.399Z,2.36
2023-01-21T01:42:49.645Z,2.40
2023-01-21T01:45:35.265Z,2.45
2023-01-21T01:48:08.349Z,2.42
2023-01-21T01:50:40.556Z,2.38
2023-01-21T01:53:15.887Z,2.38
2023-01-21T01:55:49.737Z,2.38
2023-01-21T01:58:23.191Z,2.41
2023-01-21T02:00:55.169Z,2.46
2023-01-21T02:03:46.140Z,2.51
2023-01-21T02:06:19.390Z,2.56
2023-01-21T02:08:52.324Z,2.61
2023-01-21T02:11:24.412Z,2.64
2023-01-21T02:13:59.539Z,2.66
2023-01-21T02:16:50.375Z,2.69
2023-01-21T02:20:22.525Z,2.71
2023-01-21T02:23:15.339Z,2.74
2023-01-21T02:26:28.246Z,2.76
2023-01-21T02:29:26.882Z,2.81
2023-01-21T02:32:40.701Z,2.82
2023-01-21T02:35:27.463Z,2.81
2023-01-21T02:38:26.313Z,2.86
2023-01-21T02:41:44.221Z,2.88
2023-01-21T02:45:00.880Z,2.87
2023-01-21T02:48:06.499Z,2.88
2023-01-21T02:50:46.256Z,2.86
2023-01-21T02:53:28.134Z,2.85
2023-01-21T02:56:08.298Z,2.81
2023-01-21T02:58:48.132Z,2.85
2023-01-21T03:01:32.271Z,2.88
2023-01-21T03:04:41.095Z,2.86
2023-01-21T03:07:35.678Z,2.83
2023-01-21T03:10:28.414Z,2.84
2023-01-21T03:13:41.828Z,2.89
2023-01-21T03:16:35.104Z,2.84
2023-01-21T03:19:12.810Z,2.85
2023-01-21T03:21:46.494Z,2.79
2023-01-21T03:24:19.882Z,2.83
2023-01-21T03:26:53.900Z,2.86
2023-01-21T03:29:28.997Z,2.87
2023-01-21T03:32:06.362Z,2.87
2023-01-21T03:34:43.221Z,2.91
2023-01-21T03:37:27.715Z,2.94
2023-01-21T03:44:01.026Z,2.90
2023-01-21T03:46:49.227Z,2.93
2023-01-21T03:49:31.111Z,2.91
2023-01-21T03:52:05.407Z,2.90
2023-01-21T03:54:37.792Z,2.87
2023-01-21T03:58:29.630Z,2.77
2023-01-21T04:01:01.834Z,2.65
2023-01-21T04:03:33.817Z,2.55
2023-01-21T04:06:05.975Z,2.49
2023-01-21T04:08:38.011Z,2.42
2023-01-21T04:11:12.122Z,2.39
2023-01-21T04:13:44.279Z,2.42
2023-01-21T04:16:16.243Z,2.46
2023-01-21T04:18:48.354Z,2.50
2023-01-21T04:21:20.491Z,2.54
2023-01-21T04:23:54.385Z,2.58
2023-01-21T04:26:26.348Z,2.63
2023-01-21T04:28:59.837Z,2.70
2023-01-21T04:31:31.875Z,2.75
2023-01-21T04:34:04.039Z,2.74
2023-01-21T04:36:36.026Z,2.73
2023-01-21T04:39:08.075Z,2.67
2023-01-21T04:41:40.016Z,2.53
2023-01-21T04:44:12.064Z,2.45
2023-01-21T04:46:45.918Z,2.35
2023-01-21T04:49:19.476Z,2.25
2023-01-21T04:51:51.532Z,2.19
2023-01-21T04:54:23.557Z,2.12
2023-01-21T04:56:55.530Z,2.14
2023-01-21T04:59:27.651Z,2.16
2023-01-21T05:01:59.693Z,2.18
2023-01-21T05:04:33.000Z,2.17
2023-01-21T05:07:05.526Z,2.17
2023-01-21T05:13:30.477Z,2.21
2023-01-21T05:16:30.441Z,2.26
2023-01-21T05:19:02.416Z,2.30
2023-01-21T05:21:34.526Z,2.37
2023-01-21T05:24:06.868Z,2.38
2023-01-21T05:26:38.837Z,2.41
2023-01-21T05:29:11.228Z,2.44
2023-01-21T05:31:46.387Z,2.49
2023-01-21T05:34:18.375Z,2.51
2023-01-21T05:36:50.373Z,2.53
2023-01-21T05:39:22.399Z,2.54
2023-01-21T05:41:54.355Z,2.56
2023-01-21T05:44:26.367Z,2.57
2023-01-21T05:46:58.400Z,2.58
2023-01-21T05:50:01.229Z,2.60
2023-01-21T05:52:33.285Z,2.60
2023-01-21T05:55:06.185Z,2.63
2023-01-21T05:57:38.176Z,2.67
2023-01-21T06:00:11.110Z,2.68
2023-01-21T06:02:43.115Z,2.72
2023-01-21T06:05:15.276Z,2.74
2023-01-21T06:07:47.311Z,2.74
2023-01-21T06:10:20.649Z,2.74
2023-01-21T06:12:53.002Z,2.78
2023-01-21T06:15:25.934Z,2.79
2023-01-21T06:17:59.027Z,2.79
2023-01-21T06:20:31.552Z,2.77
2023-01-21T06:23:03.922Z,2.75
2023-01-21T06:25:35.892Z,2.76
2023-01-21T06:28:10.784Z,2.78
2023-01-21T06:30:42.773Z,2.79
2023-01-21T06:33:14.942Z,2.84
2023-01-21T06:35:47.586Z,2.84
2023-01-21T06:38:19.619Z,2.88
2023-01-21T06:40:51.713Z,2.85
2023-01-21T06:43:23.725Z,2.83
2023-01-21T06:45:55.984Z,2.81
2023-01-21T06:48:30.581Z,2.82
2023-01-21T06:51:02.990Z,2.81
2023-01-21T06:53:36.971Z,2.81
2023-01-21T06:56:08.992Z,2.79
2023-01-21T06:58:42.436Z,2.79
2023-01-21T07:01:14.477Z,2.83
2023-01-21T07:03:46.606Z,2.86
2023-01-21T07:06:18.618Z,2.91
2023-01-21T07:08:50.665Z,2.91
2023-01-21T07:11:22.772Z,2.98
2023-01-21T07:13:54.818Z,2.99
2023-01-21T07:16:27.250Z,3.03
2023-01-21T07:18:59.283Z,3.04
2023-01-21T07:21:31.494Z,3.07
2023-01-21T07:24:06.408Z,3.06
2023-01-21T07:26:38.380Z,3.05
2023-01-21T07:29:10.630Z,3.03
2023-01-21T07:31:42.681Z,2.96
2023-01-21T07:34:14.812Z,2.94
2023-01-21T07:36:46.770Z,2.96
2023-01-21T07:39:18.727Z,2.86
2023-01-21T07:41:50.786Z,2.88
2023-01-21T07:44:22.772Z,2.90
2023-01-21T07:46:55.015Z,2.93
2023-01-21T07:49:27.019Z,3.00
2023-01-21T07:51:59.144Z,3.04
2023-01-21T07:54:31.154Z,3.06
2023-01-21T07:57:03.232Z,3.12
2023-01-21T07:59:35.295Z,3.09
2023-01-21T08:02:07.325Z,3.14
2023-01-21T08:04:39.381Z,3.13
2023-01-21T08:07:13.271Z,3.10
2023-01-21T08:09:45.429Z,3.05
2023-01-21T08:12:17.507Z,3.07
2023-01-21T08:14:49.507Z,3.10
2023-01-21T08:17:21.581Z,3.11
2023-01-21T08:19:53.554Z,3.14
2023-01-21T08:22:26.111Z,3.11
2023-01-21T08:24:58.183Z,3.17
2023-01-21T08:27:30.412Z,3.21
2023-01-21T08:30:11.645Z,3.19
2023-01-21T08:32:44.205Z,3.15
2023-01-21T08:35:16.502Z,3.15
2023-01-21T08:37:48.718Z,3.16
2023-01-21T08:40:20.800Z,3.22
2023-01-21T08:42:59.480Z,3.26
2023-01-21T08:45:31.535Z,3.28
2023-01-21T08:48:04.268Z,3.30
2023-01-21T08:53:59.002Z,3.22
2023-01-21T08:56:31.262Z,3.24
2023-01-21T08:59:03.354Z,3.27
2023-01-21T09:01:37.962Z,3.27
2023-01-21T09:04:10.309Z,3.36
2023-01-21T09:06:42.289Z,3.41
2023-01-21T09:09:14.226Z,3.46
2023-01-21T09:11:46.343Z,3.49
2023-01-21T09:14:19.874Z,3.50
2023-01-21T09:16:52.044Z,3.47
2023-01-21T09:23:28.769Z,3.35
2023-01-21T09:26:07.339Z,3.41
2023-01-21T09:28:42.388Z,3.47
2023-01-21T09:31:31.166Z,3.59
2023-01-21T09:34:05.938Z,3.67
2023-01-21T09:36:59.812Z,3.73
2023-01-21T09:39:31.816Z,3.66
2023-01-21T09:42:03.963Z,3.62
2023-01-21T09:44:44.889Z,3.60
2023-01-21T09:47:36.754Z,3.63
2023-01-21T09:50:22.125Z,3.65
2023-01-21T09:53:01.738Z,3.73
2023-01-21T09:55:47.931Z,3.79
2023-01-21T09:58:37.931Z,3.88
2023-01-21T10:01:24.499Z,4.05
2023-01-21T10:04:03.147Z,4.08
2023-01-21T10:06:38.677Z,4.20
2023-01-21T10:09:43.897Z,4.24
2023-01-21T10:12:44.551Z,4.36
2023-01-21T10:15:41.888Z,4.41
2023-01-21T10:18:23.426Z,4.39
2023-01-21T10:21:03.820Z,4.32
2023-01-21T10:23:43.211Z,4.21
2023-01-21T10:26:15.834Z,4.13
2023-01-21T10:28:55.857Z,4.22
2023-01-21T10:31:40.088Z,4.18
2023-01-21T10:34:17.387Z,4.34
2023-01-21T10:37:12.589Z,4.43
2023-01-21T10:40:43.981Z,4.63
2023-01-21T10:43:37.765Z,4.73
2023-01-21T10:46:48.839Z,4.81
2023-01-21T10:49:29.759Z,4.56
2023-01-21T10:52:13.843Z,4.27
2023-01-21T10:54:56.737Z,4.21
2023-01-21T10:58:05.430Z,3.97
2023-01-21T11:00:44.053Z,4.00
2023-01-21T11:03:44.608Z,4.02
2023-01-21T11:06:19.556Z,4.06
2023-01-21T11:08:58.641Z,3.99
2023-01-21T11:11:35.539Z,3.95
2023-01-21T11:14:08.022Z,3.99
2023-01-21T11:16:45.586Z,4.06
2023-01-21T11:19:32.096Z,4.18
2023-01-21T11:22:17.643Z,4.29
2023-01-21T11:24:52.806Z,4.12
2023-01-21T11:27:40.284Z,4.12
2023-01-21T11:30:48.721Z,3.74
2023-01-21T11:33:27.884Z,3.82
2023-01-21T11:36:16.910Z,4.01
2023-01-21T11:39:03.928Z,4.13
2023-01-21T11:41:36.586Z,4.17
2023-01-21T11:44:20.697Z,4.12
2023-01-21T11:46:52.939Z,4.14
2023-01-21T11:49:28.931Z,3.98
2023-01-21T11:52:19.298Z,3.98
2023-01-21T11:54:52.678Z,3.88
2023-01-21T11:57:29.057Z,3.93
2023-01-21T12:00:19.361Z,3.90
2023-01-21T12:03:01.828Z,3.88
2023-01-21T12:05:43.162Z,3.89
2023-01-21T12:08:30.127Z,3.88
2023-01-21T12:11:05.054Z,3.92
2023-01-21T12:14:07.827Z,3.91
2023-01-21T12:17:22.025Z,3.86
2023-01-21T12:20:23.424Z,3.78
2023-01-21T12:23:15.493Z,3.74
2023-01-21T12:26:12.428Z,3.72
2023-01-21T12:29:21.753Z,3.83
2023-01-21T12:32:01.823Z,3.90
2023-01-21T12:35:02.750Z,3.85
2023-01-21T12:37:48.575Z,3.88
2023-01-21T12:40:33.247Z,3.85
2023-01-21T12:43:22.840Z,3.86
2023-01-21T12:46:15.266Z,3.96
2023-01-21T12:49:33.316Z,3.96
2023-01-21T12:52:59.801Z,4.04
2023-01-21T12:56:22.593Z,4.02
2023-01-21T12:59:14.365Z,3.95
2023-01-21T13:03:29.375Z,4.00
2023-01-21T13:06:10.877Z,4.05
2023-01-21T13:09:11.633Z,3.95
2023-01-21T13:11:52.613Z,3.73
2023-01-21T13:14:36.035Z,3.71
2023-01-21T13:17:31.086Z,3.69
2023-01-21T13:20:18.717Z,3.73
2023-01-21T13:23:35.243Z,3.75
2023-01-21T13:26:30.760Z,3.74
2023-01-21T13:29:47.526Z,3.81
2023-01-21T13:32:58.624Z,3.92
2023-01-21T13:36:14.561Z,3.91
2023-01-21T13:39:14.985Z,3.95
2023-01-21T13:42:17.686Z,3.96
2023-01-21T13:45:30.842Z,3.92
2023-01-21T13:48:33.635Z,3.96
2023-01-21T13:51:39.256Z,4.02
2023-01-21T13:54:45.749Z,4.09
2023-01-21T13:58:03.942Z,4.01
2023-01-21T14:01:32.231Z,3.97
2023-01-21T14:04:52.827Z,3.94
2023-01-21T14:07:45.078Z,3.82
2023-01-21T14:10:37.035Z,3.90
2023-01-21T14:13:29.350Z,4.00
2023-01-21T14:16:15.925Z,3.93
2023-01-21T14:19:12.395Z,3.97
2023-01-21T14:22:13.416Z,4.07
2023-01-21T14:25:16.704Z,4.09
2023-01-21T14:28:09.593Z,4.18
2023-01-21T14:30:48.466Z,3.98
2023-01-21T14:33:51.453Z,3.93
2023-01-21T14:36:43.391Z,3.95
2023-01-21T14:39:53.571Z,3.90
2023-01-21T14:42:47.158Z,3.80
2023-01-21T14:45:23.558Z,3.73
2023-01-21T14:47:57.905Z,3.54
2023-01-21T14:50:56.367Z,3.34
2023-01-21T14:53:28.447Z,3.32
2023-01-21T14:56:19.689Z,3.18
2023-01-21T14:59:23.846Z,3.16
2023-01-21T15:02:02.341Z,3.16
2023-01-21T15:04:42.069Z,3.17
2023-01-21T15:07:20.283Z,3.18
2023-01-21T15:10:02.477Z,3.21
2023-01-21T15:12:38.340Z,3.21
2023-01-21T15:16:13.924Z,3.29
2023-01-21T15:19:19.080Z,3.29
2023-01-21T15:22:00.279Z,3.36
2023-01-21T15:24:40.719Z,3.41
2023-01-21T15:27:27.016Z,3.44
2023-01-21T15:30:00.703Z,3.40
2023-01-21T15:32:41.064Z,3.32
2023-01-21T15:35:27.983Z,3.19
2023-01-21T15:38:09.723Z,3.09
2023-01-21T15:41:03.056Z,3.06
2023-01-21T15:43:54.984Z,3.01
2023-01-21T15:47:04.335Z,2.94
2023-01-21T15:49:56.045Z,2.86
2023-01-21T15:52:44.085Z,2.83
2023-01-21T15:55:25.996Z,2.79
2023-01-21T15:58:13.453Z,2.77
2023-01-21T16:01:41.508Z,2.74
2023-01-21T16:04:35.848Z,2.68
2023-01-21T16:07:32.232Z,2.59
2023-01-21T16:10:44.651Z,2.57
2023-01-21T16:13:47.605Z,2.54
2023-01-21T16:17:07.398Z,2.53
2023-01-21T16:19:45.508Z,2.53
2023-01-21T16:22:38.649Z,2.54
2023-01-21T16:25:15.629Z,2.58
2023-01-21T16:27:52.568Z,2.63
2023-01-21T16:30:32.309Z,2.65
2023-01-21T16:33:09.372Z,2.68
2023-01-21T16:35:50.450Z,2.69
2023-01-21T16:38:26.773Z,2.69
2023-01-21T16:41:08.029Z,2.70
2023-01-21T16:43:55.799Z,2.70
2023-01-21T16:46:36.352Z,2.74
2023-01-21T16:49:17.781Z,2.76
2023-01-21T16:52:01.046Z,2.80
2023-01-21T16:54:33.974Z,2.83
2023-01-21T16:57:19.514Z,2.77
2023-01-21T16:59:58.041Z,2.66
2023-01-21T17:02:33.386Z,2.63
2023-01-21T17:05:06.236Z,2.55
2023-01-21T17:07:49.019Z,2.51
2023-01-21T17:10:29.747Z,2.48
2023-01-21T17:13:08.035Z,2.45
2023-01-21T17:16:03.643Z,2.43
2023-01-21T17:18:39.764Z,2.38
2023-01-21T17:21:16.517Z,2.38
2023-01-21T17:23:55.632Z,2.35
2023-01-21T17:26:45.166Z,2.37
2023-01-21T17:29:18.859Z,2.37
2023-01-21T17:32:05.997Z,2.38
2023-01-21T17:34:40.259Z,2.34
2023-01-21T17:37:55.219Z,2.32
2023-01-21T17:40:45.992Z,2.31
2023-01-21T17:43:24.108Z,2.32
2023-01-21T17:45:57.490Z,2.28
2023-01-21T17:48:33.267Z,2.31
2023-01-21T17:51:06.464Z,2.32
2023-01-21T17:53:56.255Z,2.34
2023-01-21T17:57:00.612Z,2.26
2023-01-21T17:59:38.007Z,2.30
2023-01-21T18:02:17.007Z,2.33
2023-01-21T18:04:49.057Z,2.32
2023-01-21T18:07:32.240Z,2.30
2023-01-21T18:10:12.046Z,2.30
2023-01-21T18:12:44.055Z,2.28
2023-01-21T18:15:18.543Z,2.31
2023-01-21T18:17:56.209Z,2.27
2023-01-21T18:20:30.520Z,2.28
2023-01-21T18:23:02.807Z,2.30
2023-01-21T18:25:34.902Z,2.36
2023-01-21T18:28:22.085Z,2.37
2023-01-21T18:30:57.379Z,2.35
2023-01-21T18:33:31.003Z,2.36
2023-01-21T18:36:03.221Z,2.32
2023-01-21T18:38:35.981Z,2.30
2023-01-21T18:41:09.076Z,2.29
2023-01-21T18:43:42.056Z,2.30
2023-01-21T18:46:16.360Z,2.29
2023-01-21T18:48:48.495Z,2.30
2023-01-21T18:51:32.367Z,2.30
2023-01-21T18:54:04.704Z,2.22
2023-01-21T18:56:38.015Z,2.27
2023-01-21T18:59:19.451Z,2.26
2023-01-21T19:01:51.553Z,2.23
2023-01-21T19:04:23.649Z,2.31
2023-01-21T19:06:55.666Z,2.33
2023-01-21T19:09:28.020Z,2.31
2023-01-21T19:12:00.041Z,2.37
2023-01-21T19:14:31.983Z,2.44
2023-01-21T19:17:04.036Z,2.49
2023-01-21T19:19:36.022Z,2.50
2023-01-21T19:22:15.959Z,2.57
2023-01-21T19:24:48.287Z,2.64
2023-01-21T19:27:31.170Z,2.62
2023-01-21T19:30:03.470Z,2.68
2023-01-21T19:32:35.983Z,2.72
2023-01-21T19:38:23.251Z,2.74
2023-01-21T19:40:56.470Z,2.77
2023-01-21T19:43:28.833Z,2.75
2023-01-21T19:46:00.812Z,2.75
2023-01-21T19:48:32.998Z,2.74
2023-01-21T19:51:06.524Z,2.75
2023-01-21T19:53:38.513Z,2.76
2023-01-21T19:56:17.532Z,2.77
2023-01-21T19:58:49.610Z,2.59
2023-01-21T20:01:21.665Z,2.68
2023-01-21T20:06:46.592Z,2.68
2023-01-21T20:09:19.288Z,2.67
2023-01-21T20:11:51.310Z,2.71
2023-01-21T20:14:23.435Z,2.77
2023-01-21T20:16:56.581Z,2.77
2023-01-21T20:19:28.670Z,2.72
2023-01-21T20:22:02.332Z,2.77
2023-01-21T20:24:34.790Z,2.82
2023-01-21T20:27:15.565Z,2.88
2023-01-21T20:30:02.865Z,2.86
2023-01-21T20:32:39.923Z,2.77
2023-01-21T20:35:16.587Z,2.78
2023-01-21T20:37:51.686Z,2.82
2023-01-21T20:40:30.396Z,2.77
2023-01-21T20:43:02.633Z,2.68
2023-01-21T20:45:43.392Z,2.72
2023-01-21T20:48:44.605Z,2.78
2023-01-21T20:51:21.651Z,2.83
2023-01-21T20:53:53.996Z,2.86
2023-01-21T20:56:30.643Z,2.87
2023-01-21T20:59:02.870Z,2.94
2023-01-21T21:01:36.891Z,2.97
2023-01-21T21:04:10.717Z,2.94
2023-01-21T21:06:48.678Z,2.81
2023-01-21T21:09:22.165Z,2.68
2023-01-21T21:11:54.403Z,2.54
2023-01-21T21:14:28.200Z,2.53
2023-01-21T21:17:00.475Z,2.47
2023-01-21T21:19:32.597Z,2.37
2023-01-21T21:22:29.619Z,2.29
2023-01-21T21:25:01.675Z,2.26
2023-01-21T21:27:33.849Z,2.09
2023-01-21T21:30:08.867Z,2.05
2023-01-21T21:32:40.867Z,2.03
2023-01-21T21:35:32.240Z,1.99
2023-01-21T21:38:12.014Z,1.94
2023-01-21T21:40:47.692Z,1.96
2023-01-21T21:43:33.053Z,1.92
2023-01-21T21:46:27.732Z,1.99
2023-01-21T21:48:59.850Z,2.01
2023-01-21T21:51:31.973Z,2.04
2023-01-21T21:54:10.557Z,2.08
2023-01-21T21:56:43.298Z,2.02
2023-01-21T21:59:16.194Z,1.95
2023-01-21T22:01:48.186Z,2.02
2023-01-21T22:04:21.357Z,2.10
2023-01-21T22:06:53.439Z,2.13
2023-01-21T22:09:25.620Z,2.21
2023-01-21T22:11:57.681Z,2.20
2023-01-21T22:14:29.654Z,2.18
2023-01-21T22:17:01.732Z,2.11
2023-01-21T22:19:33.726Z,2.17
2023-01-21T22:22:06.119Z,2.22
2023-01-21T22:24:38.121Z,2.32
2023-01-21T22:27:13.114Z,2.19
2023-01-21T22:29:45.218Z,2.18
2023-01-21T22:32:17.218Z,2.17
2023-01-21T22:34:49.259Z,2.21
2023-01-21T22:37:21.308Z,2.28
2023-01-21T22:39:53.367Z,2.28
2023-01-21T22:42:25.519Z,2.34
2023-01-21T22:44:57.575Z,2.35
2023-01-21T22:47:32.117Z,2.34
2023-01-21T22:50:04.833Z,2.33
2023-01-21T22:52:36.842Z,2.39
2023-01-21T22:55:09.476Z,2.35
2023-01-21T22:57:41.490Z,2.21
2023-01-21T23:00:41.046Z,2.21
2023-01-21T23:03:13.069Z,2.29
2023-01-21T23:05:45.343Z,2.29
2023-01-21T23:08:18.738Z,2.27
2023-01-21T23:11:02.414Z,2.30
2023-01-21T23:13:35.377Z,2.35
2023-01-21T23:16:10.579Z,2.39
2023-01-21T23:18:42.700Z,2.43
2023-01-21T23:21:19.348Z,2.36
2023-01-21T23:23:51.412Z,2.39
2023-01-21T23:26:23.398Z,2.40
2023-01-21T23:28:57.248Z,2.40
2023-01-21T23:31:29.549Z,2.48
2023-01-21T23:34:03.412Z,2.47
2023-01-21T23:36:35.528Z,2.53
2023-01-21T23:39:07.844Z,2.57
2023-01-21T23:41:39.955Z,2.52
2023-01-21T23:44:12.077Z,2.53
2023-01-21T23:46:44.609Z,2.55
2023-01-21T23:49:19.689Z,2.54
2023-01-21T23:51:51.868Z,2.51
2023-01-21T23:54:23.911Z,2.45
2023-01-21T23:59:50.334Z,2.50
